createdAt,value
2022-09-04T00:02:30.962Z,21.30
2022-09-04T00:05:07.580Z,18.58
2022-09-04T00:07:40.893Z,20.88
2022-09-04T00:10:19.517Z,17.63
2022-09-04T00:12:55.443Z,20.75
2022-09-04T00:15:27.677Z,21.10
2022-09-04T00:18:01.153Z,19.00
2022-09-04T00:20:37.515Z,19.17
2022-09-04T00:23:14.855Z,19.33
2022-09-04T00:25:50.543Z,20.85
2022-09-04T00:28:26.433Z,18.92
2022-09-04T00:31:04.513Z,21.48
2022-09-04T00:33:42.159Z,15.27
2022-09-04T00:36:13.090Z,20.55
2022-09-04T00:38:45.501Z,25.10
2022-09-04T00:41:25.139Z,18.52
2022-09-04T00:44:26.635Z,16.58
2022-09-04T00:47:21.173Z,17.02
2022-09-04T00:50:05.177Z,23.60
2022-09-04T00:52:58.544Z,20.92
2022-09-04T00:55:52.669Z,17.95
2022-09-04T00:58:42.592Z,16.35
2022-09-04T01:01:20.853Z,20.05
2022-09-04T01:04:16.567Z,17.27
2022-09-04T01:06:55.172Z,18.05
2022-09-04T01:09:47.870Z,16.55
2022-09-04T01:12:28.285Z,20.48
2022-09-04T01:15:11.427Z,19.85
2022-09-04T01:17:49.979Z,15.93
2022-09-04T01:20:27.855Z,17.63
2022-09-04T01:23:13.271Z,19.67
2022-09-04T01:25:59.807Z,21.15
2022-09-04T01:28:33.913Z,16.50
2022-09-04T01:31:13.674Z,19.95
2022-09-04T01:33:49.353Z,19.95
2022-09-04T01:36:26.377Z,20.50
2022-09-04T01:38:57.349Z,18.17
2022-09-04T01:41:33.936Z,19.70
2022-09-04T01:44:08.052Z,22.45
2022-09-04T01:46:50.248Z,18.77
2022-09-04T01:49:29.189Z,24.15
2022-09-04T01:52:06.838Z,21.83
2022-09-04T01:54:44.982Z,22.05
2022-09-04T01:57:25.645Z,22.38
2022-09-04T02:00:03.769Z,18.02
2022-09-04T02:02:42.622Z,18.25
2022-09-04T02:05:19.499Z,21.98
2022-09-04T02:07:55.021Z,18.95
2022-09-04T02:10:35.823Z,19.80
2022-09-04T02:13:15.242Z,22.33
2022-09-04T02:15:54.072Z,19.88
2022-09-04T02:18:36.012Z,21.50
2022-09-04T02:21:09.185Z,21.15
2022-09-04T02:23:45.441Z,22.95
2022-09-04T02:26:18.152Z,22.50
2022-09-04T02:28:57.415Z,21.83
2022-09-04T02:31:34.219Z,23.95
2022-09-04T02:34:08.965Z,21.05
2022-09-04T02:36:44.305Z,20.60
2022-09-04T02:39:27.782Z,20.58
2022-09-04T02:42:05.335Z,24.48
2022-09-04T02:44:47.694Z,21.13
2022-09-04T02:47:24.947Z,21.38
2022-09-04T02:50:00.729Z,22.40
2022-09-04T02:52:59.691Z,23.23
2022-09-04T02:55:53.892Z,21.40
2022-09-04T02:58:36.932Z,22.25
2022-09-04T03:01:13.581Z,22.77
2022-09-04T03:03:48.029Z,21.15
2022-09-04T03:06:22.848Z,20.75
2022-09-04T03:08:57.211Z,19.33
2022-09-04T03:11:32.331Z,20.48
2022-09-04T03:14:08.238Z,24.38
2022-09-04T03:16:43.416Z,19.77
2022-09-04T03:19:19.086Z,25.15
2022-09-04T03:21:54.266Z,19.83
2022-09-04T03:24:29.225Z,20.15
2022-09-04T03:27:02.587Z,22.75
2022-09-04T03:29:39.459Z,21.40
2022-09-04T03:32:19.148Z,21.58
2022-09-04T03:34:55.667Z,22.98
2022-09-04T03:37:41.471Z,23.67
2022-09-04T03:40:34.876Z,21.13
2022-09-04T03:43:16.153Z,26.30
2022-09-04T03:45:52.608Z,20.45
2022-09-04T03:48:35.381Z,24.27
2022-09-04T03:51:11.709Z,18.15
2022-09-04T03:53:44.171Z,21.45
2022-09-04T03:56:48.331Z,21.20
2022-09-04T03:59:29.015Z,22.55
2022-09-04T04:02:08.527Z,19.42
2022-09-04T04:05:37.035Z,24.40
2022-09-04T04:08:45.004Z,22.98
2022-09-04T04:11:30.248Z,21.50
2022-09-04T04:14:15.236Z,28.90
2022-09-04T04:16:56.202Z,21.13
2022-09-04T04:19:53.413Z,22.45
2022-09-04T04:22:37.981Z,16.73
2022-09-04T04:25:52.226Z,22.80
2022-09-04T04:28:37.851Z,17.42
2022-09-04T04:31:14.530Z,22.13
2022-09-04T04:33:55.356Z,23.00
2022-09-04T04:36:33.776Z,20.73
2022-09-04T04:39:14.055Z,19.00
2022-09-04T04:42:06.895Z,20.67
2022-09-04T04:45:23.464Z,21.65
2022-09-04T04:48:18.712Z,19.90
2022-09-04T04:50:54.450Z,21.02
2022-09-04T04:53:31.779Z,20.58
2022-09-04T04:56:07.753Z,24.48
2022-09-04T04:58:51.432Z,19.00
2022-09-04T05:01:33.067Z,22.20
2022-09-04T05:04:11.418Z,20.00
2022-09-04T05:06:48.594Z,20.88
2022-09-04T05:09:23.954Z,22.10
2022-09-04T05:12:00.555Z,21.25
2022-09-04T05:14:41.130Z,22.40
2022-09-04T05:17:21.547Z,28.33
2022-09-04T05:19:57.272Z,25.00
2022-09-04T05:22:34.404Z,26.58
2022-09-04T05:25:12.039Z,22.42
2022-09-04T05:27:57.404Z,24.02
2022-09-04T05:30:39.544Z,22.55
2022-09-04T05:33:19.011Z,24.63
2022-09-04T05:35:55.290Z,19.75
2022-09-04T05:38:29.419Z,21.10
2022-09-04T05:41:07.568Z,21.88
2022-09-04T05:44:00.336Z,22.77
2022-09-04T05:46:43.582Z,20.88
2022-09-04T05:49:25.684Z,24.27
2022-09-04T05:52:11.878Z,16.58
2022-09-04T05:55:10.570Z,23.17
2022-09-04T05:57:56.585Z,24.20
2022-09-04T06:00:32.137Z,17.45
2022-09-04T06:03:39.655Z,22.08
2022-09-04T06:06:15.332Z,20.38
2022-09-04T06:09:03.250Z,24.75
2022-09-04T06:11:42.077Z,20.60
2022-09-04T06:14:35.491Z,16.73
2022-09-04T06:17:22.329Z,25.13
2022-09-04T06:20:06.261Z,19.30
2022-09-04T06:22:53.819Z,23.63
2022-09-04T06:25:50.037Z,21.52
2022-09-04T06:28:56.339Z,18.73
2022-09-04T06:31:51.387Z,15.75
2022-09-04T06:34:34.654Z,17.30
2022-09-04T06:37:13.175Z,20.98
2022-09-04T06:40:00.335Z,15.80
2022-09-04T06:42:42.001Z,18.08
2022-09-04T06:45:23.628Z,17.02
2022-09-04T06:48:04.312Z,14.73
2022-09-04T06:50:39.869Z,19.67
2022-09-04T06:53:27.525Z,15.27
2022-09-04T06:56:11.304Z,13.50
2022-09-04T06:58:56.007Z,13.95
2022-09-04T07:01:40.505Z,15.00
2022-09-04T07:04:20.735Z,28.67
2022-09-04T07:07:06.375Z,27.67
2022-09-04T07:09:39.769Z,49.20
2022-09-04T07:12:41.349Z,57.05
2022-09-04T07:15:48.194Z,19.20
2022-09-04T07:18:42.623Z,21.88
2022-09-04T07:21:17.893Z,13.90
2022-09-04T07:23:57.846Z,15.43
2022-09-04T07:26:36.569Z,12.07
2022-09-04T07:29:16.320Z,12.27
2022-09-04T07:31:53.633Z,18.92
2022-09-04T07:34:28.991Z,10.55
2022-09-04T07:37:02.645Z,11.27
2022-09-04T07:39:38.814Z,11.23
2022-09-04T07:42:12.736Z,12.93
2022-09-04T07:44:46.848Z,9.00
2022-09-04T07:47:19.662Z,10.15
2022-09-04T07:49:57.850Z,10.50
2022-09-04T07:52:45.477Z,9.27
2022-09-04T07:55:34.571Z,8.32
2022-09-04T07:58:31.586Z,9.57
2022-09-04T08:01:23.371Z,11.82
2022-09-04T08:04:10.513Z,10.80
2022-09-04T08:06:46.222Z,8.77
2022-09-04T08:09:45.268Z,9.02
2022-09-04T08:12:44.914Z,9.70
2022-09-04T08:15:22.004Z,6.72
2022-09-04T08:18:16.605Z,12.90
2022-09-04T08:20:49.157Z,8.15
2022-09-04T08:23:39.881Z,10.20
2022-09-04T08:26:18.766Z,10.13
2022-09-04T08:29:16.791Z,8.45
2022-09-04T08:31:58.535Z,10.23
2022-09-04T08:35:00.666Z,7.90
2022-09-04T08:37:33.765Z,7.38
2022-09-04T08:40:31.191Z,5.85
2022-09-04T08:43:34.233Z,9.65
2022-09-04T08:46:27.001Z,7.00
2022-09-04T08:49:32.105Z,10.77
2022-09-04T08:53:04.137Z,11.40
2022-09-04T08:55:47.697Z,9.13
2022-09-04T08:58:47.643Z,7.65
2022-09-04T09:02:04.205Z,9.82
2022-09-04T09:05:07.695Z,7.43
2022-09-04T09:08:09.988Z,8.88
2022-09-04T09:10:45.851Z,9.20
2022-09-04T09:13:50.356Z,7.55
2022-09-04T09:16:23.989Z,7.90
2022-09-04T09:19:12.167Z,9.32
2022-09-04T09:21:49.361Z,10.10
2022-09-04T09:24:59.822Z,6.93
2022-09-04T09:28:09.682Z,10.85
2022-09-04T09:30:53.117Z,9.93
2022-09-04T09:33:55.476Z,7.40
2022-09-04T09:36:53.344Z,7.22
2022-09-04T09:40:02.378Z,11.18
2022-09-04T09:43:03.186Z,9.43
2022-09-04T09:46:00.848Z,7.15
2022-09-04T09:48:50.319Z,5.75
2022-09-04T09:51:56.869Z,6.60
2022-09-04T09:54:43.695Z,5.95
2022-09-04T09:58:02.482Z,8.60
2022-09-04T10:00:46.460Z,7.22
2022-09-04T10:03:44.771Z,10.43
2022-09-04T10:06:41.248Z,8.43
2022-09-04T10:09:44.289Z,11.07
2022-09-04T10:12:51.715Z,8.75
2022-09-04T10:15:59.615Z,7.95
2022-09-04T10:19:04.622Z,10.63
2022-09-04T10:22:09.928Z,15.05
2022-09-04T10:25:10.925Z,7.55
2022-09-04T10:28:26.103Z,9.88
2022-09-04T10:31:19.917Z,12.48
2022-09-04T10:34:02.003Z,11.68
2022-09-04T10:36:42.829Z,11.65
2022-09-04T10:39:41.208Z,10.55
2022-09-04T10:42:36.759Z,11.35
2022-09-04T10:45:27.148Z,10.13
2022-09-04T10:48:36.287Z,10.75
2022-09-04T10:51:35.298Z,11.73
2022-09-04T10:54:28.799Z,12.85
2022-09-04T10:57:08.828Z,11.95
2022-09-04T10:59:59.087Z,8.30
2022-09-04T11:03:13.865Z,10.43
2022-09-04T11:06:08.765Z,14.45
2022-09-04T11:08:58.669Z,10.20
2022-09-04T11:12:01.539Z,10.30
2022-09-04T11:15:03.609Z,10.68
2022-09-04T11:17:57.669Z,14.82
2022-09-04T11:21:16.053Z,9.27
2022-09-04T11:24:24.512Z,8.68
2022-09-04T11:27:35.501Z,15.10
2022-09-04T11:30:12.192Z,13.07
2022-09-04T11:33:09.321Z,11.60
2022-09-04T11:36:05.888Z,11.30
2022-09-04T11:39:20.185Z,10.50
2022-09-04T11:42:35.412Z,7.35
2022-09-04T11:45:31.949Z,9.18
2022-09-04T11:48:42.202Z,11.70
2022-09-04T11:51:49.252Z,11.80
2022-09-04T11:54:34.506Z,7.68
2022-09-04T11:57:23.655Z,14.60
2022-09-04T12:00:09.556Z,13.27
2022-09-04T12:03:10.506Z,13.52
2022-09-04T12:05:56.312Z,8.75
2022-09-04T12:08:57.304Z,7.95
2022-09-04T12:11:55.218Z,8.32
2022-09-04T12:14:43.957Z,6.40
2022-09-04T12:17:39.310Z,9.75
2022-09-04T12:20:41.191Z,6.80
2022-09-04T12:23:34.592Z,9.25
2022-09-04T12:26:52.048Z,10.63
2022-09-04T12:30:09.255Z,10.32
2022-09-04T12:33:10.620Z,6.45
2022-09-04T12:36:22.408Z,6.97
2022-09-04T12:39:17.773Z,8.93
2022-09-04T12:41:57.121Z,6.25
2022-09-04T12:44:38.104Z,9.95
2022-09-04T12:47:22.816Z,7.10
2022-09-04T12:50:08.610Z,9.32
2022-09-04T12:52:51.137Z,7.80
2022-09-04T12:55:33.413Z,6.55
2022-09-04T12:58:18.480Z,8.95
2022-09-04T13:00:56.734Z,5.80
2022-09-04T13:03:34.924Z,7.47
2022-09-04T13:06:18.245Z,5.82
2022-09-04T13:08:57.177Z,6.30
2022-09-04T13:11:41.397Z,7.72
2022-09-04T13:14:38.992Z,8.48
2022-09-04T13:17:13.829Z,7.95
2022-09-04T13:19:49.250Z,6.53
2022-09-04T13:22:27.637Z,8.00
2022-09-04T13:25:06.715Z,6.18
2022-09-04T13:27:48.237Z,9.23
2022-09-04T13:30:24.645Z,7.63
2022-09-04T13:33:16.786Z,12.40
2022-09-04T13:36:00.141Z,6.90
2022-09-04T13:38:57.730Z,9.32
2022-09-04T13:41:51.481Z,9.25
2022-09-04T13:44:45.784Z,6.82
2022-09-04T13:47:22.723Z,5.57
2022-09-04T13:49:59.429Z,7.57
2022-09-04T13:52:34.923Z,7.78
2022-09-04T13:55:06.981Z,5.97
2022-09-04T13:57:41.818Z,6.47
2022-09-04T14:00:12.084Z,5.43
2022-09-04T14:02:41.947Z,6.63
2022-09-04T14:05:13.410Z,5.95
2022-09-04T14:07:45.239Z,7.60
2022-09-04T14:10:17.400Z,7.45
2022-09-04T14:13:05.440Z,9.25
2022-09-04T14:15:53.790Z,7.68
2022-09-04T14:18:49.758Z,7.03
2022-09-04T14:21:31.165Z,7.00
2022-09-04T14:24:08.035Z,10.05
2022-09-04T14:26:44.248Z,5.90
2022-09-04T14:29:25.134Z,9.05
2022-09-04T14:32:06.030Z,5.90
2022-09-04T14:34:50.133Z,7.80
2022-09-04T14:37:36.217Z,6.05
2022-09-04T14:40:10.606Z,10.10
2022-09-04T14:42:46.925Z,5.53
2022-09-04T14:45:32.638Z,5.75
2022-09-04T14:48:05.370Z,5.40
2022-09-04T14:50:46.646Z,4.70
2022-09-04T14:53:22.790Z,7.10
2022-09-04T14:56:21.847Z,5.00
2022-09-04T14:58:56.176Z,7.32
2022-09-04T15:01:25.910Z,5.43
2022-09-04T15:03:59.322Z,6.43
2022-09-04T15:06:44.630Z,6.28
2022-09-04T15:09:28.399Z,6.88
2022-09-04T15:12:24.149Z,5.82
2022-09-04T15:14:58.739Z,6.53
2022-09-04T15:17:30.128Z,7.70
2022-09-04T15:20:03.447Z,5.75
2022-09-04T15:22:41.387Z,5.85
2022-09-04T15:25:20.296Z,6.47
2022-09-04T15:27:57.530Z,5.47
2022-09-04T15:30:33.555Z,6.10
2022-09-04T15:33:07.954Z,5.72
2022-09-04T15:35:37.500Z,9.25
2022-09-04T15:38:19.588Z,5.57
2022-09-04T15:41:15.100Z,5.53
2022-09-04T15:43:44.272Z,6.65
2022-09-04T15:46:23.041Z,5.70
2022-09-04T15:48:56.455Z,6.75
2022-09-04T15:51:32.499Z,8.80
2022-09-04T15:54:29.386Z,6.32
2022-09-04T15:57:08.427Z,4.78
2022-09-04T15:59:49.719Z,8.95
2022-09-04T16:02:36.605Z,9.23
2022-09-04T16:05:15.044Z,8.20
2022-09-04T16:07:49.640Z,11.50
2022-09-04T16:10:27.035Z,10.45
2022-09-04T16:13:01.145Z,10.13
2022-09-04T16:15:33.789Z,8.35
2022-09-04T16:18:15.405Z,12.02
2022-09-04T16:20:51.281Z,8.88
2022-09-04T16:23:29.494Z,12.00
2022-09-04T16:26:10.009Z,6.63
2022-09-04T16:28:45.904Z,6.68
2022-09-04T16:31:16.825Z,6.47
2022-09-04T16:33:50.209Z,7.35
2022-09-04T16:36:22.416Z,7.82
2022-09-04T16:38:57.415Z,8.43
2022-09-04T16:41:37.603Z,9.20
2022-09-04T16:44:26.201Z,7.25
2022-09-04T16:47:04.618Z,8.00
2022-09-04T16:49:41.515Z,9.63
2022-09-04T16:52:37.544Z,8.32
2022-09-04T16:55:11.985Z,9.45
2022-09-04T16:57:51.441Z,10.63
2022-09-04T17:00:22.440Z,9.73
2022-09-04T17:03:06.030Z,6.35
2022-09-04T17:05:42.040Z,6.43
2022-09-04T17:08:15.630Z,8.15
2022-09-04T17:10:47.589Z,7.45
2022-09-04T17:13:27.950Z,7.20
2022-09-04T17:16:01.955Z,11.32
2022-09-04T17:18:31.522Z,11.23
2022-09-04T17:25:43.321Z,11.40
2022-09-04T17:29:02.054Z,9.25
2022-09-04T17:29:14.604Z,10.38
2022-09-04T17:29:50.413Z,6.38
2022-09-04T17:33:57.084Z,7.25
2022-09-04T17:40:36.080Z,13.68
2022-09-04T17:40:43.034Z,7.95
2022-09-04T17:41:33.296Z,6.95
2022-09-04T17:44:26.228Z,8.48
2022-09-04T17:47:09.929Z,8.77
2022-09-04T17:49:45.629Z,13.18
2022-09-04T17:52:23.506Z,144.60
2022-09-04T17:54:52.276Z,37.47
2022-09-04T17:57:26.372Z,17.60
2022-09-04T18:00:01.944Z,14.82
2022-09-04T18:02:40.995Z,9.40
2022-09-04T18:05:20.183Z,10.70
2022-09-04T18:08:08.992Z,6.60
2022-09-04T18:10:51.525Z,9.55
2022-09-04T18:13:37.906Z,7.82
2022-09-04T18:16:20.365Z,11.75
2022-09-04T18:18:54.567Z,6.38
2022-09-04T18:21:26.976Z,9.23
2022-09-04T18:24:01.966Z,10.85
2022-09-04T18:26:40.653Z,6.22
2022-09-04T18:36:06.359Z,12.95
2022-09-04T18:37:11.475Z,10.25
2022-09-04T18:37:25.652Z,8.05
2022-09-04T18:38:51.658Z,9.55
2022-09-04T18:50:20.206Z,7.85
2022-09-04T18:50:21.470Z,7.57
2022-09-04T18:50:34.957Z,6.15
2022-09-04T18:51:12.620Z,6.63
2022-09-04T18:53:29.725Z,5.60
2022-09-04T18:56:03.386Z,10.35
2022-09-04T18:58:46.286Z,5.53
2022-09-04T19:01:26.851Z,7.25
2022-09-04T19:03:57.928Z,8.45
2022-09-04T19:06:35.897Z,5.97
2022-09-04T19:09:15.780Z,7.50
2022-09-04T19:11:48.864Z,6.60
2022-09-04T19:14:20.705Z,10.38
2022-09-04T19:16:52.869Z,7.93
2022-09-04T19:19:27.237Z,7.25
2022-09-04T19:22:09.588Z,8.48
2022-09-04T19:24:49.695Z,6.97
2022-09-04T19:27:29.129Z,10.40
2022-09-04T19:30:18.942Z,10.05
2022-09-04T19:33:05.158Z,5.05
2022-09-04T19:35:38.487Z,13.05
2022-09-04T19:43:05.488Z,5.15
2022-09-04T19:46:03.406Z,9.98
2022-09-04T19:46:12.082Z,5.60
2022-09-04T19:47:03.996Z,4.95
2022-09-04T19:53:22.201Z,4.32
2022-09-04T19:53:32.365Z,7.35
2022-09-04T19:55:41.647Z,11.18
2022-09-04T19:58:15.589Z,10.48
2022-09-04T20:00:49.942Z,6.88
2022-09-04T20:03:29.482Z,9.25
2022-09-04T20:06:20.016Z,6.53
2022-09-04T20:08:55.453Z,6.28
2022-09-04T20:11:34.843Z,5.43
2022-09-04T20:14:20.270Z,5.95
2022-09-04T20:17:01.598Z,8.90
2022-09-04T20:19:38.841Z,6.13
2022-09-04T20:22:14.830Z,8.32
2022-09-04T20:25:01.958Z,4.03
2022-09-04T20:27:35.653Z,8.15
2022-09-04T20:30:12.103Z,5.20
2022-09-04T20:32:55.763Z,3.92
2022-09-04T20:35:33.818Z,8.15
2022-09-04T20:38:23.504Z,6.13
2022-09-04T20:40:59.472Z,3.72
2022-09-04T20:43:34.803Z,4.93
2022-09-04T20:49:16.668Z,4.43
2022-09-04T20:52:49.773Z,4.45
2022-09-04T20:52:59.376Z,3.50
2022-09-04T20:55:06.152Z,4.15
2022-09-04T21:03:05.165Z,3.38
2022-09-04T21:03:22.695Z,5.55
2022-09-04T21:03:59.097Z,4.97
2022-09-04T21:06:35.710Z,6.53
2022-09-04T21:09:37.959Z,7.30
2022-09-04T21:12:31.570Z,6.10
2022-09-04T21:15:07.779Z,6.43
2022-09-04T21:17:56.050Z,5.53
2022-09-04T21:20:55.100Z,5.03
2022-09-04T21:24:12.732Z,5.90
2022-09-04T21:27:00.575Z,6.15
2022-09-04T21:29:44.675Z,4.05
2022-09-04T21:32:32.997Z,6.13
2022-09-04T21:35:13.209Z,4.07
2022-09-04T21:37:56.097Z,4.80
2022-09-04T21:41:02.115Z,4.15
2022-09-04T21:43:53.470Z,2.85
2022-09-04T21:46:49.120Z,5.30
2022-09-04T21:49:38.723Z,4.43
2022-09-04T21:52:29.625Z,5.55
2022-09-04T21:59:32.753Z,8.60
2022-09-04T22:02:35.610Z,4.35
2022-09-04T22:02:39.896Z,2.15
2022-09-04T22:04:32.546Z,16.98
2022-09-04T22:11:55.521Z,5.22
2022-09-04T22:13:30.906Z,2.50
2022-09-04T22:13:40.672Z,4.85
2022-09-04T22:16:04.840Z,2.97
2022-09-04T22:18:46.971Z,2.97
2022-09-04T22:21:25.860Z,3.08
2022-09-04T22:24:29.848Z,4.13
2022-09-04T22:27:37.630Z,2.80
2022-09-04T22:30:23.239Z,3.05
2022-09-04T22:33:25.958Z,2.10
2022-09-04T22:36:22.665Z,3.90
2022-09-04T22:39:31.404Z,5.00
2022-09-04T22:42:29.851Z,4.10
2022-09-04T22:45:27.807Z,2.88
2022-09-04T22:48:17.457Z,2.65
2022-09-04T22:50:59.418Z,3.58
2022-09-04T22:53:54.933Z,1.58
2022-09-04T22:56:38.365Z,1.48
2022-09-04T22:59:32.012Z,4.13
2022-09-04T23:03:06.725Z,2.60
2022-09-04T23:06:44.713Z,4.80
2022-09-04T23:13:59.987Z,1.80
2022-09-04T23:14:01.501Z,5.05
2022-09-04T23:15:28.794Z,1.67
2022-09-04T23:22:30.895Z,2.20
2022-09-04T23:26:37.382Z,3.25
2022-09-04T23:26:58.110Z,2.95
2022-09-04T23:27:32.416Z,4.72
2022-09-04T23:30:25.254Z,4.22
2022-09-04T23:33:32.169Z,2.38
2022-09-04T23:36:06.686Z,3.38
2022-09-04T23:39:03.051Z,2.53
2022-09-04T23:41:52.850Z,5.25
2022-09-04T23:45:01.365Z,2.30
2022-09-04T23:48:10.889Z,2.72
2022-09-04T23:50:50.446Z,3.42
2022-09-04T23:53:29.357Z,3.13
2022-09-04T23:56:20.838Z,1.98
2022-09-04T23:59:25.874Z,3.05
